createdAt,value
2019-05-23T00:03:44.121Z,21.00
2019-05-23T00:09:08.313Z,21.00
2019-05-23T00:14:21.310Z,21.00
2019-05-23T00:19:26.749Z,20.90
2019-05-23T00:24:30.635Z,20.90
2019-05-23T00:29:35.966Z,20.90
2019-05-23T00:34:41.324Z,20.90
2019-05-23T00:39:47.358Z,20.90
2019-05-23T00:44:52.296Z,20.90
2019-05-23T00:49:55.930Z,20.80
2019-05-23T00:55:00.320Z,20.80
2019-05-23T01:00:04.717Z,20.80
2019-05-23T01:05:10.267Z,20.80
2019-05-23T01:10:15.430Z,20.80
2019-05-23T01:15:20.394Z,20.70
2019-05-23T01:20:37.948Z,20.70
2019-05-23T01:25:41.666Z,20.70
2019-05-23T01:31:02.038Z,20.70
2019-05-23T01:36:06.313Z,20.70
2019-05-23T01:41:11.281Z,20.60
2019-05-23T01:46:15.148Z,20.70
2019-05-23T01:51:20.302Z,20.60
2019-05-23T01:56:24.559Z,20.60
2019-05-23T02:01:28.345Z,20.60
2019-05-23T02:06:32.412Z,20.60
2019-05-23T02:11:36.883Z,20.50
2019-05-23T02:16:41.090Z,20.50
2019-05-23T02:21:44.812Z,20.50
2019-05-23T02:26:48.499Z,20.50
2019-05-23T02:31:53.409Z,20.50
2019-05-23T02:36:58.454Z,20.40
2019-05-23T02:42:12.719Z,20.40
2019-05-23T02:47:34.405Z,20.40
2019-05-23T02:52:41.159Z,20.40
2019-05-23T02:57:47.008Z,20.40
2019-05-23T03:02:56.011Z,20.40
2019-05-23T03:08:00.908Z,20.30
2019-05-23T03:13:06.289Z,20.30
2019-05-23T03:18:10.671Z,20.30
2019-05-23T03:23:15.326Z,20.40
2019-05-23T03:28:21.265Z,20.30
2019-05-23T03:33:25.800Z,20.30
2019-05-23T03:38:29.514Z,20.30
2019-05-23T03:43:34.529Z,20.30
2019-05-23T03:48:40.158Z,20.30
2019-05-23T03:53:46.784Z,20.30
2019-05-23T03:58:51.851Z,20.20
2019-05-23T04:03:56.740Z,20.20
2019-05-23T04:09:01.846Z,20.20
2019-05-23T04:14:07.471Z,20.20
2019-05-23T04:19:11.690Z,20.20
2019-05-23T04:24:16.192Z,20.20
2019-05-23T04:29:19.876Z,20.20
2019-05-23T04:34:23.845Z,20.20
2019-05-23T04:39:28.805Z,20.20
2019-05-23T04:44:32.426Z,20.20
2019-05-23T04:49:36.629Z,20.20
2019-05-23T04:54:41.120Z,20.20
2019-05-23T04:59:45.178Z,20.20
2019-05-23T05:04:48.819Z,20.20
2019-05-23T05:09:52.502Z,20.20
2019-05-23T05:14:56.280Z,20.20
2019-05-23T05:20:00.069Z,20.20
2019-05-23T05:25:04.633Z,20.20
2019-05-23T05:30:08.622Z,20.20
2019-05-23T05:35:14.406Z,20.20
2019-05-23T05:40:18.496Z,20.10
2019-05-23T05:45:22.511Z,20.10
2019-05-23T05:50:26.407Z,19.70
2019-05-23T05:55:30.112Z,19.50
2019-05-23T06:00:38.580Z,19.30
2019-05-23T06:05:59.077Z,19.30
2019-05-23T06:11:05.513Z,19.20
2019-05-23T06:16:09.413Z,19.10
2019-05-23T06:21:14.746Z,19.10
2019-05-23T06:26:18.454Z,19.10
2019-05-23T06:31:22.178Z,19.10
2019-05-23T06:36:27.273Z,19.10
2019-05-23T06:41:32.126Z,19.50
2019-05-23T06:46:35.901Z,19.90
2019-05-23T06:51:39.543Z,20.00
2019-05-23T06:56:43.267Z,20.00
2019-05-23T07:01:46.894Z,20.00
2019-05-23T07:06:51.005Z,20.10
2019-05-23T07:11:55.775Z,20.10
2019-05-23T07:16:59.471Z,20.10
2019-05-23T07:22:03.273Z,20.10
2019-05-23T07:27:06.953Z,20.10
2019-05-23T07:32:10.644Z,20.10
2019-05-23T07:37:14.350Z,20.20
2019-05-23T07:42:18.375Z,20.20
2019-05-23T07:47:23.102Z,20.30
2019-05-23T07:52:26.771Z,20.30
2019-05-23T07:57:31.359Z,20.30
2019-05-23T08:02:37.833Z,20.30
2019-05-23T08:07:42.857Z,20.30
2019-05-23T08:12:46.680Z,20.40
2019-05-23T08:17:50.369Z,20.40
2019-05-23T08:22:53.988Z,20.40
2019-05-23T08:27:58.437Z,20.40
2019-05-23T08:33:02.477Z,20.50
2019-05-23T08:38:07.147Z,20.50
2019-05-23T08:43:11.022Z,20.40
2019-05-23T08:48:14.775Z,20.40
2019-05-23T08:53:18.495Z,20.50
2019-05-23T08:58:22.427Z,20.50
2019-05-23T09:03:26.826Z,20.50
2019-05-23T09:08:31.170Z,20.50
2019-05-23T09:13:34.777Z,20.60
2019-05-23T09:18:38.475Z,20.60
2019-05-23T09:23:42.244Z,20.60
2019-05-23T09:28:45.895Z,20.60
2019-05-23T09:33:49.538Z,20.60
2019-05-23T09:38:53.218Z,20.60
2019-05-23T09:43:56.796Z,20.70
2019-05-23T09:49:00.475Z,20.70
2019-05-23T09:54:04.272Z,20.70
2019-05-23T09:59:08.129Z,20.70
2019-05-23T10:04:11.818Z,20.60
2019-05-23T10:09:15.486Z,20.60
2019-05-23T10:14:20.824Z,20.60
2019-05-23T10:19:25.990Z,20.70
2019-05-23T10:24:29.661Z,20.70
2019-05-23T10:29:33.367Z,20.70
2019-05-23T10:34:37.149Z,20.80
2019-05-23T10:39:42.314Z,20.70
2019-05-23T10:50:07.957Z,20.70
2019-05-23T10:55:08.241Z,20.70
2019-05-23T11:00:14.317Z,20.70
2019-05-23T11:05:18.277Z,20.80
2019-05-23T11:10:22.630Z,20.80
2019-05-23T11:15:26.427Z,20.80
2019-05-23T11:20:30.297Z,20.90
2019-05-23T11:25:35.070Z,20.90
2019-05-23T11:30:50.380Z,21.00
2019-05-23T11:35:54.203Z,21.00
2019-05-23T11:40:58.204Z,21.00
2019-05-23T11:46:18.714Z,21.10
2019-05-23T11:51:25.201Z,21.00
2019-05-23T11:56:27.723Z,21.00
2019-05-23T12:01:40.092Z,21.00
2019-05-23T12:06:55.399Z,21.00
2019-05-23T12:11:51.108Z,21.00
2019-05-23T12:16:55.995Z,21.00
2019-05-23T12:21:59.757Z,21.10
2019-05-23T12:27:03.609Z,21.10
2019-05-23T12:32:08.946Z,21.30
2019-05-23T12:37:20.821Z,21.30
2019-05-23T12:42:19.511Z,21.30
2019-05-23T12:47:24.927Z,21.20
2019-05-23T12:52:28.909Z,21.30
2019-05-23T12:57:32.544Z,21.30
2019-05-23T13:02:36.921Z,21.40
2019-05-23T13:07:40.597Z,21.40
2019-05-23T13:12:44.287Z,21.40
2019-05-23T13:17:48.111Z,21.30
2019-05-23T13:22:51.895Z,21.20
2019-05-23T13:27:58.668Z,21.20
2019-05-23T13:33:03.705Z,21.40
2019-05-23T13:38:08.172Z,21.50
2019-05-23T13:43:11.796Z,21.30
2019-05-23T13:48:15.498Z,21.40
2019-05-23T13:53:19.258Z,21.40
2019-05-23T13:58:23.309Z,21.50
2019-05-23T14:03:27.372Z,21.60
2019-05-23T14:08:31.061Z,21.60
2019-05-23T14:13:35.186Z,21.60
2019-05-23T14:18:39.267Z,21.70
2019-05-23T14:23:43.236Z,21.70
2019-05-23T14:28:47.939Z,21.80
2019-05-23T14:33:53.314Z,22.10
2019-05-23T14:38:58.883Z,22.10
2019-05-23T14:44:03.913Z,22.10
2019-05-23T14:49:09.532Z,22.20
2019-05-23T14:54:33.112Z,22.20
2019-05-23T14:59:37.399Z,22.20
2019-05-23T15:04:41.202Z,22.20
2019-05-23T15:09:44.893Z,22.20
2019-05-23T15:14:48.860Z,22.30
2019-05-23T15:19:52.706Z,22.10
2019-05-23T15:24:56.396Z,22.20
2019-05-23T15:30:00.131Z,22.20
2019-05-23T15:35:04.193Z,22.10
2019-05-23T15:40:08.195Z,22.20
2019-05-23T15:45:12.086Z,22.10
2019-05-23T15:50:17.433Z,22.10
2019-05-23T15:55:25.604Z,22.10
2019-05-23T16:00:31.139Z,22.00
2019-05-23T16:05:35.034Z,22.10
2019-05-23T16:10:39.309Z,22.00
2019-05-23T16:15:44.035Z,22.10
2019-05-23T16:20:47.611Z,22.00
2019-05-23T16:25:51.366Z,22.00
2019-05-23T16:30:55.176Z,22.00
2019-05-23T16:35:59.176Z,22.00
2019-05-23T16:41:02.791Z,22.10
2019-05-23T16:46:06.503Z,22.00
2019-05-23T16:51:10.452Z,22.00
2019-05-23T16:56:18.790Z,22.10
2019-05-23T17:01:29.886Z,22.10
2019-05-23T17:06:35.168Z,22.10
2019-05-23T17:11:49.271Z,22.10
2019-05-23T17:16:54.676Z,22.10
2019-05-23T17:22:00.088Z,22.20
2019-05-23T17:27:05.421Z,22.20
2019-05-23T17:32:10.773Z,22.30
2019-05-23T17:37:15.576Z,22.30
2019-05-23T17:42:21.077Z,22.30
2019-05-23T17:47:25.200Z,22.30
2019-05-23T17:52:29.159Z,22.30
2019-05-23T17:57:33.331Z,22.30
2019-05-23T18:02:37.659Z,22.30
2019-05-23T18:07:41.709Z,22.30
2019-05-23T18:12:45.572Z,22.30
2019-05-23T18:17:49.616Z,22.30
2019-05-23T18:22:54.656Z,22.40
2019-05-23T18:27:58.813Z,22.30
2019-05-23T18:33:03.599Z,22.40
2019-05-23T18:38:07.673Z,22.40
2019-05-23T18:43:11.737Z,22.40
2019-05-23T18:48:16.072Z,22.40
2019-05-23T18:53:19.772Z,22.40
2019-05-23T18:58:23.560Z,22.40
2019-05-23T19:03:27.443Z,22.40
2019-05-23T19:08:31.327Z,22.40
2019-05-23T19:13:35.085Z,22.40
2019-05-23T19:18:39.171Z,22.40
2019-05-23T19:23:43.090Z,22.40
2019-05-23T19:28:46.997Z,22.40
2019-05-23T19:33:51.231Z,22.40
2019-05-23T19:38:54.982Z,22.30
2019-05-23T19:43:58.716Z,22.40
2019-05-23T19:49:02.608Z,22.40
2019-05-23T19:54:06.369Z,22.40
2019-05-23T19:59:10.086Z,22.40
2019-05-23T20:04:14.658Z,22.40
2019-05-23T20:09:19.999Z,22.40
2019-05-23T20:14:23.799Z,22.40
2019-05-23T20:19:27.475Z,22.40
2019-05-23T20:24:31.124Z,22.40
2019-05-23T20:29:34.795Z,22.40
2019-05-23T20:34:39.500Z,22.40
2019-05-23T20:39:43.681Z,22.40
2019-05-23T20:44:47.575Z,22.40
2019-05-23T20:49:51.216Z,22.40
2019-05-23T20:54:55.209Z,22.40
2019-05-23T20:59:58.930Z,22.40
2019-05-23T21:05:02.678Z,22.30
2019-05-23T21:10:06.471Z,22.30
2019-05-23T21:15:10.275Z,22.30
2019-05-23T21:20:13.982Z,22.30
2019-05-23T21:25:17.682Z,22.30
2019-05-23T21:30:21.460Z,22.30
2019-05-23T21:35:25.166Z,22.30
2019-05-23T21:40:30.416Z,22.30
2019-05-23T21:45:34.213Z,22.30
2019-05-23T21:50:39.198Z,22.30
2019-05-23T21:55:43.666Z,22.30
2019-05-23T22:01:05.574Z,22.30
2019-05-23T22:06:12.973Z,22.30
2019-05-23T22:11:17.322Z,22.30
2019-05-23T22:16:21.096Z,22.30
2019-05-23T22:21:24.891Z,22.30
2019-05-23T22:26:28.920Z,22.30
2019-05-23T22:31:32.885Z,22.30
2019-05-23T22:36:36.584Z,22.20
2019-05-23T22:41:41.261Z,22.20
2019-05-23T22:46:44.960Z,22.10
2019-05-23T22:51:48.571Z,22.10
2019-05-23T22:56:52.265Z,22.10
2019-05-23T23:01:55.998Z,22.10
2019-05-23T23:06:59.776Z,22.00
2019-05-23T23:12:03.462Z,22.00
2019-05-23T23:17:07.235Z,22.00
2019-05-23T23:22:11.897Z,21.90
2019-05-23T23:27:16.438Z,21.90
2019-05-23T23:32:20.145Z,21.90
2019-05-23T23:37:23.818Z,21.90
2019-05-23T23:42:27.515Z,21.90
2019-05-23T23:47:49.422Z,21.80
2019-05-23T23:53:12.046Z,21.80
2019-05-23T23:58:15.148Z,21.80
